Time;durP1;ratioP1;P1;durP2;ratioP2;P2;SDS_P1;SDS_P2;PMS_P1;PMS_P2;Temp;Humidity;BMP_temperature;BMP_pressure;BME280_temperature;BME280_humidity;BME280_pressure;Samples;Min_cycle;Max_cycle;Signal;HPM_P1;HPM_P2
2021/01/04 00:45:04;;;;;;;;;;;;;;;;;;;;;
2021/01/04 01:05:17;;;;;;;;;;;;;;;;;;;;;
2021/01/04 01:08:48;;;;;;;;;;;;;;;;;;;;;
2021/01/04 01:22:17;;;;;;;;;;;;;;;;;;;;;
2021/01/04 01:29:47;;;;;;;;;;;;;;;;;;;;;
2021/01/04 01:33:12;;;;;;;;;;;;;;;;;;;;;
2021/01/04 01:36:31;;;;;;;;;;;;;;;;;;;;;
2021/01/04 01:39:48;;;;;;;;;;;;;;;;;;;;;
2021/01/04 02:06:41;;;;;;;;;;;;;;;;;;;;;
2021/01/04 02:14:47;;;;;;;59.10;55.60;;;1.70;99.90;;;;;;5848614;24;20507;-85
2021/01/04 02:21:25;;;;;;;59.23;55.90;;;1.70;99.90;;;;;;6003051;23;20420;-84
2021/01/04 02:24:44;;;;;;;;;;;;;;;;;;;;;
2021/01/04 02:27:50;;;;;;;50.80;47.73;;;1.70;99.90;;;;;;6028442;23;20494;-84
2021/01/04 02:43:00;;;;;;;50.50;47.17;;;1.70;99.90;;;;;;6025912;23;20977;-84
2021/01/04 02:49:07;;;;;;;;;;;;;;;;;;;;;
2021/01/04 02:55:39;;;;;;;;;;;;;;;;;;;;;
2021/01/04 02:58:52;;;;;;;45.63;42.77;;;1.70;99.90;;;;;;5923503;24;20421;-83
2021/01/04 03:02:02;;;;;;;;;;;;;;;;;;;;;
2021/01/04 03:04:47;;;;;;;;;;;;;;;;;;;;;
2021/01/04 03:07:42;;;;;;;43.17;39.83;;;1.70;99.90;;;;;;6134557;23;20409;-83
2021/01/04 03:10:33;;;;;;;50.33;46.80;;;1.80;99.90;;;;;;6128760;23;20798;-84
2021/01/04 03:13:36;;;;;;;;;;;;;;;;;;;;;
2021/01/04 03:16:13;;;;;;;42.87;39.97;;;1.80;99.90;;;;;;6223925;23;20447;-83
2021/01/04 03:18:48;;;;;;;39.40;36.60;;;1.80;99.90;;;;;;6227414;23;20411;-80
2021/01/04 03:21:40;;;;;;;;;;;;;;;;;;;;;
2021/01/04 03:24:10;;;;;;;40.07;37.00;;;1.80;99.90;;;;;;6210120;23;20368;-82
2021/01/04 03:27:26;;;;;;;36.67;33.67;;;1.80;99.90;;;;;;6226765;23;20428;-83
2021/01/04 03:30:35;;;;;;;;;;;;;;;;;;;;;
2021/01/04 03:33:11;;;;;;;34.53;31.97;;;1.80;99.90;;;;;;6156752;23;20412;-83
2021/01/04 03:36:09;;;;;;;31.27;28.80;;;1.80;99.90;;;;;;6226565;23;20473;-82
2021/01/04 03:38:55;;;;;;;;;;;;;;;;;;;;;
2021/01/04 03:41:30;;;;;;;35.73;33.13;;;1.70;99.90;;;;;;6171884;23;20428;-83
2021/01/04 03:44:19;;;;;;;40.23;36.50;;;1.80;99.90;;;;;;6216875;23;20399;-84
2021/01/04 03:47:27;;;;;;;;;;;;;;;;;;;;;
2021/01/04 03:50:27;;;;;;;37.33;34.73;;;1.80;99.90;;;;;;5943605;24;20459;-83
2021/01/04 03:52:57;;;;;;;37.43;34.63;;;1.80;99.90;;;;;;6169990;23;20451;-83
2021/01/04 03:55:31;;;;;;;37.80;35.00;;;1.90;99.90;;;;;;6236475;23;20526;-83
2021/01/04 03:58:20;;;;;;;;;;;;;;;;;;;;;
2021/01/04 04:01:48;;;;;;;;;;;;;;;;;;;;;
2021/01/04 04:04:24;;;;;;;40.77;37.97;;;1.70;99.90;;;;;;6138743;23;20489;-82
2021/01/04 04:06:58;;;;;;;37.60;35.00;;;1.70;99.90;;;;;;6246676;23;20399;-83
2021/01/04 04:09:39;;;;;;;35.90;33.40;;;1.70;99.90;;;;;;6257026;23;20867;-82
2021/01/04 04:12:13;;;;;;;37.97;35.20;;;1.70;99.90;;;;;;6246623;23;20406;-83
2021/01/04 04:14:49;;;;;;;39.90;36.90;;;1.70;99.90;;;;;;6245245;23;20405;-84
2021/01/04 04:17:42;;;;;;;40.23;37.33;;;1.70;99.90;;;;;;6246118;23;20401;-83
2021/01/04 04:20:38;;;;;;;;;;;;;;;;;;;;;
2021/01/04 04:23:47;;;;;;;;;;;;;;;;;;;;;
2021/01/04 04:26:39;;;;;;;47.40;44.23;;;1.60;99.90;;;;;;6227766;23;20744;-83
2021/01/04 04:32:25;;;;;;;;;;;;;;;;;;;;;
2021/01/04 04:35:06;;;;;;;43.97;40.97;;;1.70;99.90;;;;;;6256625;23;20422;-83
2021/01/04 04:38:05;;;;;;;;;;;;;;;;;;;;;
2021/01/04 04:40:43;;;;;;;;;;;;;;;;;;;;;
2021/01/04 04:43:48;;;;;;;43.83;40.77;;;1.60;99.90;;;;;;6128395;23;20409;-83
2021/01/04 04:46:25;;;;;;;39.80;37.07;;;1.70;99.90;;;;;;6149999;23;20521;-83
2021/01/04 04:49:08;;;;;;;41.63;38.53;;;1.60;99.90;;;;;;6256599;23;20498;-85
2021/01/04 04:52:01;;;;;;;45.80;42.27;;;1.70;99.90;;;;;;6256312;23;20486;-83
2021/01/04 04:58:11;;;;;;;43.67;40.77;;;1.70;99.90;;;;;;6155584;23;20419;-83
2021/01/04 05:01:09;;;;;;;42.67;39.87;;;1.70;99.90;;;;;;6254730;23;20486;-83
2021/01/04 05:03:56;;;;;;;47.27;43.93;;;1.70;99.90;;;;;;6246414;23;20774;-83
2021/01/04 05:06:53;;;;;;;;;;;;;;;;;;;;;
2021/01/04 05:10:00;;;;;;;;;;;;;;;;;;;;;
2021/01/04 05:13:00;;;;;;;;;;;;;;;;;;;;;
2021/01/04 05:15:59;;;;;;;;;;;;;;;;;;;;;
2021/01/04 05:19:13;;;;;;;34.40;31.50;;;1.80;99.90;;;;;;6153413;23;20784;-83
2021/01/04 05:25:44;;;;;;;32.27;29.57;;;1.80;99.90;;;;;;6084091;23;20426;-83
2021/01/04 05:32:17;;;;;;;36.50;33.67;;;1.80;99.90;;;;;;6124941;23;20408;-75
2021/01/04 05:35:04;;;;;;;32.60;30.03;;;1.80;99.90;;;;;;6241869;23;20418;-80
2021/01/04 05:37:49;;;;;;;28.03;25.73;;;1.80;99.90;;;;;;6253624;23;20399;-76
2021/01/04 05:41:04;;;;;;;28.70;26.40;;;1.80;99.90;;;;;;6245705;23;20464;-80
2021/01/04 05:43:51;;;;;;;27.50;25.25;;;1.90;99.90;;;;;;6255963;23;20498;-80
2021/01/04 05:46:30;;;;;;;27.57;25.20;;;1.80;99.90;;;;;;6244084;23;20163;-82
2021/01/04 05:49:14;;;;;;;27.43;24.90;;;1.80;99.90;;;;;;6255595;23;20415;-82
2021/01/04 05:51:46;;;;;;;22.93;20.97;;;1.90;99.90;;;;;;6256060;23;20414;-82
2021/01/04 05:54:22;;;;;;;23.93;21.83;;;1.90;99.90;;;;;;6255448;23;21274;-82
2021/01/04 05:56:49;;;;;;;21.07;19.13;;;1.80;99.90;;;;;;6255674;23;20491;-82
2021/01/04 05:59:35;;;;;;;24.07;21.87;;;1.90;99.90;;;;;;6245851;23;20400;-83
2021/01/04 06:02:04;;;;;;;23.27;21.30;;;1.90;99.90;;;;;;6245638;23;20406;-82
2021/01/04 06:04:38;;;;;;;26.17;23.63;;;2.00;99.90;;;;;;6245946;23;20438;-83
2021/01/04 06:07:13;;;;;;;26.07;23.77;;;1.90;99.90;;;;;;6255921;23;20410;-82
2021/01/04 06:09:39;;;;;;;22.83;20.73;;;1.80;99.90;;;;;;6256018;23;20418;-82
2021/01/04 06:12:14;;;;;;;23.10;21.10;;;1.80;99.90;;;;;;6245808;23;20779;-82
2021/01/04 06:15:25;;;;;;;28.07;25.60;;;1.80;99.90;;;;;;6244047;23;20406;-82
2021/01/04 06:18:27;;;;;;;28.87;26.30;;;1.90;99.90;;;;;;6245443;23;20400;-82
2021/01/04 06:21:21;;;;;;;30.40;27.97;;;1.90;99.90;;;;;;6245474;23;20485;-82
2021/01/04 06:24:04;;;;;;;33.37;30.83;;;1.80;99.90;;;;;;6218021;23;20929;-82
2021/01/04 06:26:43;;;;;;;35.53;32.93;;;1.80;99.90;;;;;;6164024;23;20468;-82
2021/01/04 06:29:10;;;;;;;37.77;34.87;;;1.90;99.90;;;;;;6255549;23;20430;-83
2021/01/04 06:31:49;;;;;;;35.53;32.90;;;1.90;99.90;;;;;;6244488;23;20400;-82
2021/01/04 06:37:47;;;;;;;34.20;31.50;;;1.90;99.90;;;;;;6074115;23;20420;-82
2021/01/04 06:40:34;;;;;;;38.10;35.40;;;1.80;99.90;;;;;;6076595;23;20437;-82
2021/01/04 06:43:22;;;;;;;39.30;36.50;;;1.80;99.90;;;;;;6076571;23;20620;-83
2021/01/04 06:46:51;;;;;;;44.77;41.17;;;1.90;99.90;;;;;;6065784;23;20437;-82
2021/01/04 06:49:24;;;;;;;41.20;38.17;;;1.80;99.90;;;;;;6247610;23;20399;-82
2021/01/04 06:52:34;;;;;;;;;;;;;;;;;;;;;
2021/01/04 06:55:23;;;;;;;36.70;34.13;;;1.80;99.90;;;;;;6235214;23;20760;-82
2021/01/04 06:58:27;;;;;;;38.20;35.17;;;1.80;99.90;;;;;;6247508;23;20447;-82
2021/01/04 07:01:22;;;;;;;40.00;36.73;;;1.80;99.90;;;;;;6246100;23;20395;-82
2021/01/04 07:04:24;;;;;;;37.83;34.43;;;1.80;99.90;;;;;;6246362;23;20494;-82
2021/01/04 07:07:48;;;;;;;41.27;37.97;;;1.90;99.90;;;;;;6066812;23;20981;-82
2021/01/04 07:10:38;;;;;;;46.33;42.67;;;1.90;99.90;;;;;;6026021;23;20504;-82
2021/01/04 07:13:22;;;;;;;47.40;43.70;;;1.90;99.90;;;;;;6156287;23;20411;-82
2021/01/04 07:16:28;;;;;;;46.53;43.13;;;1.90;99.90;;;;;;6256136;23;20435;-83
2021/01/04 07:19:05;;;;;;;43.63;40.27;;;1.90;99.90;;;;;;6247421;23;20399;-82
2021/01/04 07:21:51;;;;;;;46.60;42.70;;;1.90;99.90;;;;;;6247455;23;20410;-82
2021/01/04 07:27:35;;;;;;;42.83;39.37;;;1.90;99.90;;;;;;6242121;23;20502;-81
2021/01/04 07:30:20;;;;;;;36.93;33.97;;;2.00;99.90;;;;;;6255449;23;20418;-82
2021/01/04 07:33:15;;;;;;;37.27;34.30;;;2.00;99.90;;;;;;6244932;23;20419;-82
2021/01/04 07:35:52;;;;;;;34.53;31.60;;;2.00;99.90;;;;;;6256953;23;20434;-81
2021/01/04 07:38:33;;;;;;;37.13;33.83;;;2.00;99.90;;;;;;6257204;23;20404;-81
2021/01/04 07:41:29;;;;;;;34.57;31.27;;;2.10;99.90;;;;;;6257285;23;20527;-82
2021/01/04 07:48:17;;;;;;;41.27;37.57;;;2.10;99.90;;;;;;6255293;23;20414;-81
2021/01/04 07:51:31;;;;;;;38.73;35.60;;;2.00;99.90;;;;;;6092682;23;20503;-82
2021/01/04 07:54:43;;;;;;;40.27;37.03;;;2.00;99.90;;;;;;6192303;23;20490;-81
2021/01/04 07:57:46;;;;;;;35.17;32.13;;;2.10;99.90;;;;;;6246681;23;20930;-82
2021/01/04 08:00:50;;;;;;;33.37;30.20;;;2.00;99.90;;;;;;6245277;23;20395;-81
2021/01/04 08:03:58;;;;;;;33.93;30.50;;;2.10;99.90;;;;;;6246910;23;20731;-82
2021/01/04 08:07:01;;;;;;;34.23;31.33;;;2.10;99.90;;;;;;6247338;23;20399;-82
2021/01/04 08:09:47;;;;;;;33.83;30.63;;;2.10;99.90;;;;;;6211324;23;20505;-83
2021/01/04 08:12:43;;;;;;;31.07;28.17;;;2.20;99.90;;;;;;6244181;23;20902;-81
2021/01/04 08:15:42;;;;;;;31.80;28.90;;;2.10;99.90;;;;;;6243765;23;20414;-82
2021/01/04 08:18:10;;;;;;;35.03;31.57;;;2.10;99.90;;;;;;6254860;23;20407;-82
2021/01/04 08:20:42;;;;;;;33.57;30.40;;;2.10;99.90;;;;;;6244962;23;20404;-82
2021/01/04 08:23:45;;;;;;;30.40;27.30;;;2.10;99.90;;;;;;6254620;23;20406;-82
2021/01/04 08:26:45;;;;;;;35.30;30.47;;;2.20;99.90;;;;;;6244962;23;20718;-82
2021/01/04 08:29:40;;;;;;;31.58;28.88;;;2.20;99.90;;;;;;6245047;23;20446;-82
2021/01/04 08:32:18;;;;;;;28.17;25.60;;;2.30;99.90;;;;;;6244512;23;20167;-82
2021/01/04 08:34:48;;;;;;;30.50;26.90;;;2.20;99.90;;;;;;6245172;23;20402;-82
2021/01/04 08:37:17;;;;;;;33.80;30.43;;;2.20;99.90;;;;;;6244314;23;20442;-82
2021/01/04 08:39:48;;;;;;;30.63;27.40;;;2.20;99.90;;;;;;6244866;23;20431;-82
2021/01/04 08:42:30;;;;;;;28.10;25.40;;;2.30;99.90;;;;;;6255069;23;20411;-82
2021/01/04 08:45:00;;;;;;;30.67;27.77;;;2.30;99.90;;;;;;6253635;23;20411;-79
2021/01/04 08:47:35;;;;;;;24.90;22.47;;;2.30;99.90;;;;;;6254778;23;20459;-78
2021/01/04 08:50:16;;;;;;;26.20;23.67;;;2.30;99.90;;;;;;6244609;23;20395;-81
2021/01/04 08:52:46;;;;;;;28.10;25.10;;;2.30;99.90;;;;;;6244131;23;20427;-81
2021/01/04 08:55:27;;;;;;;25.67;23.03;;;2.30;99.90;;;;;;6254571;23;20474;-81
2021/01/04 08:57:54;;;;;;;25.97;23.50;;;2.30;99.90;;;;;;6254982;23;20414;-82
2021/01/04 09:00:25;;;;;;;27.43;24.73;;;2.40;99.90;;;;;;6242638;23;20728;-82
2021/01/04 09:02:54;;;;;;;26.93;24.10;;;2.30;99.90;;;;;;6246357;23;20399;-81
2021/01/04 09:05:32;;;;;;;29.10;26.07;;;2.50;99.90;;;;;;6246318;23;20403;-81
2021/01/04 09:08:03;;;;;;;29.63;26.63;;;2.40;99.90;;;;;;6246558;23;21055;-82
2021/01/04 09:10:38;;;;;;;27.40;24.50;;;2.40;99.90;;;;;;6246265;23;20486;-81
2021/01/04 09:13:10;;;;;;;28.30;25.37;;;2.50;99.90;;;;;;6246549;23;20759;-81
2021/01/04 09:15:40;;;;;;;26.80;24.00;;;2.50;99.90;;;;;;6244228;23;20430;-82
2021/01/04 09:18:23;;;;;;;27.60;24.60;;;2.50;99.90;;;;;;6246305;23;20399;-82
2021/01/04 09:20:58;;;;;;;29.70;26.53;;;2.50;99.90;;;;;;6245616;23;20879;-81
2021/01/04 09:23:32;;;;;;;26.43;23.90;;;2.50;99.90;;;;;;6246189;23;20406;-81
2021/01/04 09:26:09;;;;;;;28.47;25.80;;;2.50;99.90;;;;;;6246310;23;20438;-81
2021/01/04 09:28:58;;;;;;;28.67;25.67;;;2.50;99.90;;;;;;6245837;23;20402;-82
2021/01/04 09:31:27;;;;;;;28.77;25.77;;;2.60;99.90;;;;;;6243635;23;20407;-81
2021/01/04 09:33:53;;;;;;;26.37;23.63;;;2.70;99.90;;;;;;6256347;23;20411;-81
2021/01/04 09:36:23;;;;;;;26.03;23.27;;;2.60;99.90;;;;;;6245649;23;20467;-81
2021/01/04 09:38:50;;;;;;;23.83;21.30;;;2.70;99.90;;;;;;6255766;23;20415;-81
2021/01/04 09:41:17;;;;;;;16.60;15.00;;;2.70;99.90;;;;;;6245965;23;20493;-81
2021/01/04 09:43:43;;;;;;;22.30;19.87;;;2.60;99.90;;;;;;6246042;23;20395;-81
2021/01/04 09:46:20;;;;;;;23.53;19.70;;;2.70;99.90;;;;;;6244137;23;20450;-81
2021/01/04 09:48:55;;;;;;;25.10;22.03;;;2.70;99.90;;;;;;6246091;23;20410;-81
2021/01/04 09:51:31;;;;;;;22.90;19.60;;;2.70;99.90;;;;;;6246057;23;20398;-82
2021/01/04 09:54:02;;;;;;;22.80;19.60;;;2.70;99.90;;;;;;6245748;23;20444;-81
2021/01/04 09:56:31;;;;;;;36.83;19.87;;;2.80;99.90;;;;;;6245989;23;20431;-82
2021/01/04 09:59:03;;;;;;;22.73;18.23;;;2.80;99.90;;;;;;6256312;23;20918;-81
2021/01/04 10:01:40;;;;;;;25.17;21.90;;;2.80;99.90;;;;;;6244296;23;20914;-82
2021/01/04 10:04:07;;;;;;;25.30;19.17;;;2.70;99.90;;;;;;6245922;23;20395;-81
2021/01/04 10:06:36;;;;;;;26.70;19.83;;;2.80;99.90;;;;;;6246056;23;20457;-81
2021/01/04 10:09:06;;;;;;;26.90;21.40;;;2.80;99.90;;;;;;6245950;23;20432;-81
2021/01/04 10:11:32;;;;;;;24.70;19.53;;;2.80;99.90;;;;;;6256009;23;20400;-81
2021/01/04 10:14:05;;;;;;;14.10;12.60;;;2.80;99.90;;;;;;6256099;23;20434;-81
2021/01/04 10:16:32;;;;;;;24.10;21.40;;;2.70;99.90;;;;;;6244267;23;20430;-81
2021/01/04 10:19:05;;;;;;;27.97;22.50;;;2.90;99.90;;;;;;6245436;23;20400;-81
2021/01/04 10:21:40;;;;;;;23.83;20.00;;;2.70;99.90;;;;;;6245632;23;20395;-81
2021/01/04 10:24:10;;;;;;;22.20;18.90;;;2.80;99.90;;;;;;6255818;23;20398;-81
2021/01/04 10:26:38;;;;;;;19.97;15.50;;;2.80;99.90;;;;;;6246020;23;20537;-81
2021/01/04 10:29:07;;;;;;;22.13;18.03;;;2.70;99.90;;;;;;6245689;23;20440;-81
2021/01/04 10:31:35;;;;;;;23.37;18.07;;;2.70;99.90;;;;;;6244392;23;20406;-81
2021/01/04 10:34:08;;;;;;;20.27;16.80;;;2.70;99.90;;;;;;6255763;23;20407;-81
2021/01/04 10:36:38;;;;;;;24.70;18.63;;;2.70;99.90;;;;;;6245855;23;20474;-81
2021/01/04 10:39:15;;;;;;;21.70;17.63;;;2.70;99.90;;;;;;6255791;23;20821;-81
2021/01/04 10:41:43;;;;;;;22.10;15.83;;;2.70;99.90;;;;;;6245801;23;20480;-81
2021/01/04 10:44:14;;;;;;;23.80;19.30;;;2.60;99.90;;;;;;6245395;23;20404;-81
2021/01/04 10:46:43;;;;;;;20.10;16.63;;;2.60;99.90;;;;;;6244345;23;20431;-82
2021/01/04 10:49:12;;;;;;;24.00;18.73;;;2.70;99.90;;;;;;6245728;23;20406;-81
2021/01/04 10:51:49;;;;;;;21.13;15.50;;;2.70;99.90;;;;;;6245737;23;20400;-81
2021/01/04 10:54:18;;;;;;;20.60;16.87;;;2.70;99.90;;;;;;6245488;23;20434;-82
2021/01/04 10:56:56;;;;;;;19.77;15.70;;;2.60;99.90;;;;;;6255161;23;20831;-81
2021/01/04 10:59:32;;;;;;;25.40;20.30;;;2.60;99.90;;;;;;6255598;23;20411;-81
2021/01/04 11:02:00;;;;;;;22.70;18.23;;;2.60;99.90;;;;;;6244466;23;20734;-81
2021/01/04 11:04:27;;;;;;;24.37;20.70;;;2.60;99.90;;;;;;6245961;23;20431;-81
2021/01/04 11:07:04;;;;;;;26.87;24.07;;;2.70;99.90;;;;;;6245395;23;20399;-81
2021/01/04 11:09:34;;;;;;;24.17;21.57;;;2.60;99.90;;;;;;6245775;23;20395;-81
2021/01/04 11:12:08;;;;;;;19.77;17.67;;;2.60;99.90;;;;;;6245778;23;20404;-81
2021/01/04 11:14:35;;;;;;;21.57;18.40;;;2.60;99.90;;;;;;6245242;23;20427;-81
2021/01/04 11:17:18;;;;;;;21.17;18.50;;;2.60;99.90;;;;;;6244746;23;20436;-81
2021/01/04 11:19:45;;;;;;;23.63;21.07;;;2.70;99.90;;;;;;6245428;23;20887;-81
2021/01/04 11:22:19;;;;;;;25.17;22.57;;;2.60;99.90;;;;;;6245987;23;20399;-81
2021/01/04 11:24:45;;;;;;;17.03;14.57;;;2.70;99.90;;;;;;6247682;23;20399;-81
2021/01/04 11:27:13;;;;;;;26.83;21.67;;;2.70;99.90;;;;;;6243090;23;20398;-81
2021/01/04 11:29:41;;;;;;;26.33;21.43;;;2.70;99.90;;;;;;6243641;23;20400;-81
2021/01/04 11:32:08;;;;;;;22.30;17.50;;;2.70;99.90;;;;;;6245636;23;20534;-81
2021/01/04 11:34:35;;;;;;;22.87;19.03;;;2.70;99.90;;;;;;6255592;23;20918;-81
2021/01/04 11:37:01;;;;;;;22.33;18.90;;;2.70;99.90;;;;;;6245410;23;20471;-81
2021/01/04 11:39:29;;;;;;;21.17;17.10;;;2.70;99.90;;;;;;6245386;23;20434;-81
2021/01/04 11:41:55;;;;;;;21.90;18.40;;;2.80;99.90;;;;;;6245187;23;20403;-81
2021/01/04 11:44:21;;;;;;;21.67;18.77;;;2.80;99.90;;;;;;6245477;23;20482;-81
2021/01/04 11:46:48;;;;;;;22.33;17.50;;;2.80;99.90;;;;;;6253827;23;20403;-81
2021/01/04 11:49:14;;;;;;;18.07;16.17;;;2.80;99.90;;;;;;6245493;23;20770;-81
2021/01/04 11:51:40;;;;;;;22.07;18.20;;;2.80;99.90;;;;;;6245180;23;20906;-81
2021/01/04 11:54:09;;;;;;;25.20;17.83;;;2.80;99.90;;;;;;6245305;23;20504;-80
2021/01/04 11:56:39;;;;;;;25.80;21.20;;;2.80;99.90;;;;;;6246145;23;20466;-80
2021/01/04 11:59:08;;;;;;;21.87;18.63;;;2.80;99.90;;;;;;6245351;23;20422;-80
2021/01/04 12:01:35;;;;;;;20.37;16.70;;;2.80;99.90;;;;;;6253554;23;20411;-81
2021/01/04 12:04:02;;;;;;;18.80;16.40;;;2.90;99.90;;;;;;6245360;23;20483;-81
2021/01/04 12:06:28;;;;;;;23.40;19.70;;;2.80;99.90;;;;;;6244979;23;20402;-81
2021/01/04 12:08:55;;;;;;;21.77;16.17;;;2.90;99.90;;;;;;6245449;23;20402;-81
2021/01/04 12:11:21;;;;;;;20.60;15.90;;;2.80;99.90;;;;;;6245709;23;20918;-81
2021/01/04 12:13:49;;;;;;;13.20;9.87;;;2.80;99.90;;;;;;6254788;23;20499;-81
2021/01/04 12:16:15;;;;;;;17.67;14.87;;;2.80;99.90;;;;;;6253868;23;20435;-81
2021/01/04 12:18:42;;;;;;;18.27;15.27;;;2.80;99.90;;;;;;6255009;23;20934;-80
2021/01/04 12:21:09;;;;;;;19.80;15.70;;;2.80;99.90;;;;;;6245449;23;20714;-81
2021/01/04 12:23:35;;;;;;;20.23;14.50;;;2.80;99.90;;;;;;6245017;23;20399;-81
2021/01/04 12:26:01;;;;;;;18.40;15.13;;;2.70;99.90;;;;;;6246938;23;20403;-81
2021/01/04 12:28:28;;;;;;;18.23;11.43;;;2.60;99.90;;;;;;6247027;23;20400;-80
2021/01/04 12:30:55;;;;;;;19.87;16.20;;;2.70;99.90;;;;;;6245393;23;20763;-81
2021/01/04 12:33:21;;;;;;;15.80;13.93;;;2.60;99.90;;;;;;6243396;23;20458;-81
2021/01/04 12:35:48;;;;;;;14.60;11.80;;;2.60;99.90;;;;;;6245069;23;20447;-81
2021/01/04 12:38:14;;;;;;;16.60;12.70;;;2.70;99.90;;;;;;6246655;23;20431;-81
2021/01/04 12:40:43;;;;;;;16.70;14.90;;;2.60;99.90;;;;;;6246872;23;20741;-82
2021/01/04 12:43:10;;;;;;;15.80;13.00;;;2.60;99.90;;;;;;6245681;23;20431;-80
2021/01/04 12:45:36;;;;;;;14.93;13.33;;;2.60;99.90;;;;;;6244622;23;20404;-80
2021/01/04 12:48:04;;;;;;;16.13;12.43;;;2.70;99.90;;;;;;6256908;23;20508;-80
2021/01/04 12:50:30;;;;;;;18.00;13.30;;;2.60;99.90;;;;;;6246639;23;20906;-81
2021/01/04 12:52:58;;;;;;;15.33;13.63;;;2.70;99.90;;;;;;6246478;23;20478;-80
2021/01/04 12:55:25;;;;;;;13.60;11.63;;;2.80;99.90;;;;;;6246530;23;20526;-81
2021/01/04 12:57:51;;;;;;;16.00;13.37;;;2.80;99.90;;;;;;6256883;23;20407;-80
2021/01/04 13:00:22;;;;;;;16.70;11.90;;;2.90;99.90;;;;;;6245002;23;20423;-81
2021/01/04 13:02:49;;;;;;;11.63;10.40;;;2.80;99.90;;;;;;6246621;23;20400;-80
2021/01/04 13:05:17;;;;;;;13.33;10.97;;;2.80;99.90;;;;;;6246026;23;20410;-81
2021/01/04 13:07:43;;;;;;;13.77;10.00;;;2.90;99.90;;;;;;6246031;23;20436;-81
2021/01/04 13:10:11;;;;;;;13.17;11.03;;;2.90;99.90;;;;;;6246609;23;20406;-81
2021/01/04 13:12:37;;;;;;;13.10;10.80;;;2.80;99.90;;;;;;6246093;23;20403;-81
2021/01/04 13:15:06;;;;;;;14.20;10.40;;;3.00;99.90;;;;;;6244917;23;20760;-81
2021/01/04 13:17:32;;;;;;;13.17;10.07;;;2.90;99.90;;;;;;6245978;23;20442;-81
2021/01/04 13:19:59;;;;;;;8.17;5.93;;;2.90;99.90;;;;;;6256420;23;20533;-81
2021/01/04 13:22:29;;;;;;;14.07;9.93;;;2.90;99.90;;;;;;6246466;23;20408;-81
2021/01/04 13:24:56;;;;;;;10.27;8.17;;;2.90;99.90;;;;;;6256545;23;20489;-81
2021/01/04 13:27:22;;;;;;;11.60;9.33;;;3.00;99.90;;;;;;6246438;23;20770;-81
2021/01/04 13:29:50;;;;;;;10.50;8.43;;;3.00;99.90;;;;;;6244717;23;20831;-81
2021/01/04 13:32:16;;;;;;;11.93;9.23;;;3.00;99.90;;;;;;6246076;23;20400;-81
2021/01/04 13:34:45;;;;;;;11.90;9.33;;;3.00;99.90;;;;;;6245835;23;20431;-81
2021/01/04 13:37:12;;;;;;;10.50;8.30;;;3.10;99.90;;;;;;6246093;23;20490;-81
2021/01/04 13:39:39;;;;;;;12.47;9.37;;;3.10;99.90;;;;;;6246233;23;20463;-81
2021/01/04 13:42:06;;;;;;;11.33;9.00;;;3.00;99.90;;;;;;6246303;23;20400;-81
2021/01/04 13:44:56;;;;;;;12.50;10.40;;;3.10;99.90;;;;;;6256092;23;20415;-81
2021/01/04 13:47:27;;;;;;;14.20;12.70;;;3.10;99.90;;;;;;6256221;23;20415;-82
2021/01/04 13:49:54;;;;;;;11.33;8.70;;;3.10;99.90;;;;;;6246235;23;20399;-82
2021/01/04 13:52:22;;;;;;;11.10;8.33;;;3.10;98.20;;;;;;6255997;23;20400;-82
2021/01/04 13:54:50;;;;;;;12.30;8.03;;;3.10;99.10;;;;;;6255948;23;20442;-82
2021/01/04 13:57:18;;;;;;;12.60;10.03;;;3.20;97.90;;;;;;6243009;23;20457;-82
2021/01/04 13:59:46;;;;;;;10.20;7.83;;;3.30;99.90;;;;;;6241613;23;20406;-82
2021/01/04 14:02:15;;;;;;;9.97;7.23;;;3.20;99.90;;;;;;6243766;23;20490;-82
2021/01/04 14:04:46;;;;;;;14.23;8.53;;;3.30;98.70;;;;;;6244120;23;20444;-81
2021/01/04 14:07:12;;;;;;;11.30;8.07;;;3.20;98.00;;;;;;6244033;23;20486;-81
2021/01/04 14:09:43;;;;;;;11.93;8.07;;;3.20;94.80;;;;;;6243918;23;20404;-82
2021/01/04 14:12:10;;;;;;;10.30;7.23;;;3.30;97.80;;;;;;6254208;23;20487;-82
2021/01/04 14:14:37;;;;;;;11.40;7.73;;;3.30;95.00;;;;;;6243365;23;20443;-82
2021/01/04 14:17:07;;;;;;;12.70;9.50;;;3.30;95.50;;;;;;6253659;23;20779;-82
2021/01/04 14:19:35;;;;;;;13.90;10.13;;;3.20;96.20;;;;;;6253934;23;20431;-81
2021/01/04 14:22:02;;;;;;;12.07;9.00;;;3.20;96.50;;;;;;6253835;23;20407;-82
2021/01/04 14:24:28;;;;;;;12.97;8.97;;;3.30;97.70;;;;;;6244290;23;20400;-82
2021/01/04 14:27:01;;;;;;;14.53;9.77;;;3.20;95.30;;;;;;6243342;23;20396;-82
2021/01/04 14:29:29;;;;;;;14.27;8.47;;;3.30;95.50;;;;;;6253826;23;21164;-82
2021/01/04 14:31:55;;;;;;;11.67;8.40;;;3.30;92.50;;;;;;6242639;23;21017;-82
2021/01/04 14:34:22;;;;;;;12.33;8.47;;;3.20;94.30;;;;;;6244072;23;20404;-82
2021/01/04 14:36:59;;;;;;;15.50;11.57;;;3.20;93.50;;;;;;6253529;23;20446;-82
2021/01/04 14:39:25;;;;;;;14.97;10.10;;;3.20;95.50;;;;;;6243828;23;20513;-82
2021/01/04 14:41:59;;;;;;;14.83;9.63;;;3.20;95.40;;;;;;6244091;23;20431;-82
2021/01/04 14:44:26;;;;;;;14.93;10.33;;;3.20;94.80;;;;;;6253774;23;20719;-82
2021/01/04 14:46:57;;;;;;;12.60;9.30;;;3.10;94.00;;;;;;6242367;23;20399;-82
2021/01/04 14:49:26;;;;;;;13.70;8.80;;;3.20;92.60;;;;;;6244070;23;20482;-82
2021/01/04 14:51:54;;;;;;;14.00;9.03;;;3.20;92.20;;;;;;6244002;23;20400;-82
2021/01/04 14:54:21;;;;;;;15.50;9.50;;;3.10;93.10;;;;;;6253311;23;20439;-82
2021/01/04 14:56:47;;;;;;;14.53;9.43;;;3.10;94.80;;;;;;6243780;23;20438;-82
2021/01/04 14:59:14;;;;;;;15.50;9.37;;;3.00;94.70;;;;;;6255780;23;20404;-82
2021/01/04 15:01:41;;;;;;;15.37;9.80;;;3.10;95.70;;;;;;6244315;23;20387;-82
2021/01/04 15:04:11;;;;;;;13.67;10.57;;;3.10;95.20;;;;;;6245906;23;20487;-81
2021/01/04 15:06:37;;;;;;;17.23;12.10;;;3.10;94.80;;;;;;6245119;23;20448;-82
2021/01/04 15:09:06;;;;;;;14.70;11.07;;;3.00;96.40;;;;;;6255846;23;20450;-83
2021/01/04 15:11:32;;;;;;;15.10;11.20;;;3.00;96.00;;;;;;6245979;23;20426;-81
2021/01/04 15:13:58;;;;;;;17.80;12.73;;;3.10;96.00;;;;;;6255485;23;21201;-82
2021/01/04 15:16:26;;;;;;;19.37;14.90;;;3.10;95.90;;;;;;6243674;23;20462;-82
2021/01/04 15:18:53;;;;;;;20.17;13.03;;;3.10;97.20;;;;;;6255180;23;20900;-81
2021/01/04 15:21:23;;;;;;;17.10;12.43;;;3.00;95.40;;;;;;6245588;23;20403;-82
2021/01/04 15:23:49;;;;;;;17.03;10.30;;;3.00;97.10;;;;;;6245813;23;20457;-82
2021/01/04 15:26:34;;;;;;;19.97;13.00;;;3.00;94.80;;;;;;6245391;23;20411;-82
2021/01/04 15:29:00;;;;;;;14.53;11.63;;;3.00;95.80;;;;;;6245563;23;20919;-82
2021/01/04 15:31:27;;;;;;;16.80;12.57;;;3.00;95.30;;;;;;6243784;23;20404;-82
2021/01/04 15:33:53;;;;;;;20.43;11.50;;;3.00;95.40;;;;;;6246008;23;20399;-82
2021/01/04 15:36:38;;;;;;;15.30;11.63;;;3.00;95.70;;;;;;6245064;23;20467;-81
2021/01/04 15:39:06;;;;;;;19.27;12.03;;;3.00;95.30;;;;;;6206400;23;20415;-82
2021/01/04 15:41:32;;;;;;;18.53;12.23;;;3.00;95.80;;;;;;6245716;23;20486;-82
2021/01/04 15:44:01;;;;;;;17.27;11.87;;;3.00;96.40;;;;;;6247855;23;20403;-82
2021/01/04 15:46:33;;;;;;;16.23;11.30;;;3.00;95.40;;;;;;6243534;23;20879;-83
2021/01/04 15:49:00;;;;;;;17.03;10.77;;;2.90;96.30;;;;;;6255456;23;20439;-82
2021/01/04 15:51:26;;;;;;;19.07;11.17;;;3.00;96.60;;;;;;6245602;23;20403;-82
2021/01/04 15:54:02;;;;;;;20.13;13.20;;;2.90;95.30;;;;;;6255312;23;20407;-82
2021/01/04 15:56:29;;;;;;;17.60;11.03;;;2.90;95.30;;;;;;6255041;23;20522;-82
2021/01/04 15:58:55;;;;;;;17.53;12.03;;;2.80;94.70;;;;;;6245618;23;20436;-82
2021/01/04 16:01:22;;;;;;;17.50;10.90;;;2.90;93.50;;;;;;6253583;23;20399;-82
2021/01/04 16:03:48;;;;;;;16.70;10.60;;;2.90;93.10;;;;;;6245391;23;20490;-83
2021/01/04 16:06:23;;;;;;;17.40;11.40;;;3.00;91.20;;;;;;6245357;23;20411;-82
2021/01/04 16:08:49;;;;;;;19.37;13.10;;;2.90;93.30;;;;;;6244910;23;20434;-82
2021/01/04 16:11:22;;;;;;;19.03;12.90;;;3.00;92.90;;;;;;6244475;23;20399;-82
2021/01/04 16:13:49;;;;;;;17.57;11.93;;;2.90;93.80;;;;;;6244683;23;20403;-82
2021/01/04 16:16:18;;;;;;;21.30;14.47;;;3.00;94.50;;;;;;6243639;23;20439;-82
2021/01/04 16:18:54;;;;;;;23.97;15.67;;;2.90;95.30;;;;;;6244718;23;20483;-82
2021/01/04 16:21:29;;;;;;;24.30;16.33;;;3.00;96.80;;;;;;6244692;23;20399;-82
2021/01/04 16:23:56;;;;;;;22.93;15.90;;;2.80;96.30;;;;;;6244909;23;20403;-82
2021/01/04 16:26:25;;;;;;;14.27;10.37;;;2.90;96.60;;;;;;6244751;23;20711;-82
2021/01/04 16:29:01;;;;;;;20.53;15.23;;;2.90;95.40;;;;;;6244886;23;20400;-82
2021/01/04 16:31:29;;;;;;;28.27;17.67;;;2.80;97.10;;;;;;6159561;23;20445;-82
2021/01/04 16:33:56;;;;;;;20.33;13.33;;;2.90;96.30;;;;;;6134689;23;20767;-82
2021/01/04 16:36:25;;;;;;;17.07;11.10;;;2.80;94.80;;;;;;6134926;23;20531;-82
2021/01/04 16:38:53;;;;;;;21.40;14.93;;;2.90;95.30;;;;;;6126159;23;20403;-82
2021/01/04 16:41:22;;;;;;;24.80;16.53;;;2.90;94.80;;;;;;6127143;23;20434;-82
2021/01/04 16:43:50;;;;;;;21.80;15.53;;;2.80;95.30;;;;;;6127284;23;20722;-83